KOWD/OWD METAR and TAF weather

Enter ICAO airport designator
Station Type Date Time Source
KOWD METAR 2021/07/28 02:53 UTC NOAA

KOWD 280253Z AUTO 00000KT 6SM BR CLR 20/18 A2993 RMK AO2 RAE05 SLP134 P0000 60019 T02000183 58001


Station Type Date Time Source
KOWD Decoded METAR 2021/07/28 02:53 UTC NOAA

NORWOOD MEMORIAL AIRPORT, MA, United States (KOWD) 42-11N 71-10W 19M
Jul 27, 2021 - 10:53 PM EDT / 2021.07.28 0253 UTC
Wind: Calm:0
Visibility: 6 mile(s):0
Sky conditions: clear
Weather: mist
Precipitation last hour: A trace
Temperature: 68.0 F (20.0 C)
Dew Point: 64.9 F (18.3 C)
Relative Humidity: 89%
Pressure (altimeter): 29.93 in. Hg (1013 hPa)
Pressure tendency: 0.00 inches (0.1 hPa) lower than three hours ago
ob: KOWD 280253Z AUTO 00000KT 6SM BR CLR 20/18 A2993 RMK AO2 RAE05 SLP134 P0000 60019 T02000183 58001
cycle: 3

Station Type Date Time Source
KOWD TAF UTC NOAA

Error!

Example: see airport list